Time;durP1;ratioP1;P1;durP2;ratioP2;P2;SDS_P1;SDS_P2;PMS_P1;PMS_P2;Temp;Humidity;BMP_temperature;BMP_pressure;BME280_temperature;BME280_humidity;BME280_pressure;Samples;Min_cycle;Max_cycle;Signal;HPM_P1;HPM_P2
2023/10/02 00:01:47;;;;;;;12.70;7.50;;;12.50;26.30;;;;;;5052580;28;20448;-69
2023/10/02 00:04:16;;;;;;;7.80;5.07;;;12.50;27.60;;;;;;5034677;28;20433;-69
2023/10/02 00:06:42;;;;;;;12.23;7.00;;;12.50;28.40;;;;;;5052547;28;20431;-70
2023/10/02 00:09:08;;;;;;;10.93;7.33;;;12.40;29.20;;;;;;5052739;28;20453;-69
2023/10/02 00:11:36;;;;;;;8.80;6.67;;;12.30;30.00;;;;;;5052368;28;20207;-69
2023/10/02 00:14:20;;;;;;;12.07;6.97;;;12.40;29.10;;;;;;5052223;28;20204;-68
2023/10/02 00:17:04;;;;;;;11.83;6.40;;;12.30;29.80;;;;;;5052363;28;20765;-69
2023/10/02 00:19:40;;;;;;;11.33;7.00;;;12.30;30.00;;;;;;5052334;28;20843;-69
2023/10/02 00:25:16;;;;;;;11.10;6.83;;;12.20;29.80;;;;;;4971130;28;20431;-69
2023/10/02 00:27:46;;;;;;;15.47;7.03;;;12.20;29.70;;;;;;5036230;28;20430;-69
2023/10/02 00:30:15;;;;;;;8.80;5.03;;;12.20;29.80;;;;;;5052142;28;20436;-69
2023/10/02 00:32:45;;;;;;;9.20;6.00;;;12.10;30.00;;;;;;5052008;28;20419;-68
2023/10/02 00:35:11;;;;;;;13.20;6.87;;;12.10;30.30;;;;;;5051985;28;20432;-70
2023/10/02 00:37:51;;;;;;;11.83;6.67;;;12.10;30.60;;;;;;5034218;28;20413;-69
2023/10/02 00:40:21;;;;;;;12.10;7.50;;;12.10;31.00;;;;;;5052100;28;20520;-69
2023/10/02 00:42:58;;;;;;;10.80;7.63;;;12.00;31.90;;;;;;5051763;28;20426;-69
2023/10/02 00:45:38;;;;;;;10.93;7.33;;;12.00;31.60;;;;;;5051803;28;20455;-69
2023/10/02 00:50:54;;;;;;;9.03;5.93;;;12.00;31.80;;;;;;5052125;28;20412;-68
2023/10/02 00:53:30;;;;;;;6.73;4.70;;;12.00;31.90;;;;;;5051750;28;20463;-69
2023/10/02 00:55:56;;;;;;;10.43;6.13;;;12.00;31.90;;;;;;5051428;28;20539;-69
2023/10/02 00:58:24;;;;;;;14.57;6.00;;;11.90;32.10;;;;;;5051934;28;20857;-69
2023/10/02 01:00:53;;;;;;;10.00;6.80;;;11.90;31.90;;;;;;5051792;28;20186;-69
2023/10/02 01:03:18;;;;;;;10.30;6.40;;;11.90;32.60;;;;;;5051755;28;20425;-68
2023/10/02 01:05:50;;;;;;;9.17;5.77;;;11.90;34.00;;;;;;5051445;28;20425;-69
2023/10/02 01:08:24;;;;;;;10.27;5.43;;;11.90;32.20;;;;;;5051684;28;20194;-70
2023/10/02 01:10:56;;;;;;;10.53;6.47;;;11.80;32.10;;;;;;5051654;28;20402;-69
2023/10/02 01:13:25;;;;;;;10.67;6.50;;;11.80;33.30;;;;;;5051424;28;20476;-69
2023/10/02 01:15:50;;;;;;;9.20;6.47;;;11.80;33.60;;;;;;5051426;28;20435;-69
2023/10/02 01:18:23;;;;;;;11.13;5.17;;;11.80;33.80;;;;;;5033781;28;20425;-69
2023/10/02 01:20:53;;;;;;;7.53;6.20;;;11.80;32.50;;;;;;5052227;28;20661;-68
2023/10/02 01:23:23;;;;;;;15.77;5.40;;;11.70;34.30;;;;;;5055615;28;20491;-69
2023/10/02 01:25:49;;;;;;;8.30;6.60;;;11.70;32.40;;;;;;5037625;28;20417;-69
2023/10/02 01:28:25;;;;;;;11.10;6.60;;;11.70;35.50;;;;;;5055558;28;20514;-68
2023/10/02 01:30:51;;;;;;;11.97;5.77;;;11.70;32.40;;;;;;5037617;28;20433;-68
2023/10/02 01:33:26;;;;;;;9.67;6.23;;;11.70;32.40;;;;;;5055398;28;20429;-68
2023/10/02 01:35:54;;;;;;;9.97;5.60;;;11.70;33.60;;;;;;5055273;28;20408;-68
2023/10/02 01:38:26;;;;;;;10.93;6.37;;;11.70;32.60;;;;;;5055459;28;20451;-69
2023/10/02 01:41:02;;;;;;;12.93;6.00;;;11.70;33.60;;;;;;5055150;28;20808;-69
2023/10/02 01:43:32;;;;;;;9.00;5.80;;;11.70;32.70;;;;;;5055413;28;20811;-69
2023/10/02 01:45:58;;;;;;;9.63;6.57;;;11.70;33.90;;;;;;5055111;28;20405;-69
2023/10/02 01:48:36;;;;;;;9.87;5.90;;;11.70;35.80;;;;;;5055138;28;20460;-69
2023/10/02 01:51:15;;;;;;;13.47;6.80;;;11.60;36.00;;;;;;5037171;28;20425;-71
2023/10/02 01:53:45;;;;;;;12.63;6.27;;;11.60;35.60;;;;;;5055059;28;20493;-68
2023/10/02 01:56:12;;;;;;;9.10;5.67;;;11.60;36.60;;;;;;5054894;28;20420;-69
2023/10/02 01:58:39;;;;;;;9.93;6.07;;;11.60;35.60;;;;;;5054989;28;20414;-68
2023/10/02 02:01:09;;;;;;;8.23;6.10;;;11.60;36.50;;;;;;5054848;28;20496;-69
2023/10/02 02:03:38;;;;;;;9.67;6.23;;;11.60;35.80;;;;;;5054928;28;20904;-69
2023/10/02 02:06:10;;;;;;;12.10;6.83;;;11.50;37.20;;;;;;5054622;28;20436;-69
2023/10/02 02:08:37;;;;;;;10.53;5.83;;;11.50;38.50;;;;;;5054861;28;20460;-69
2023/10/02 02:11:16;;;;;;;10.13;6.27;;;11.50;38.50;;;;;;5054515;28;20405;-68
2023/10/02 02:13:44;;;;;;;12.10;6.80;;;11.40;39.20;;;;;;5093998;22;20491;-70
2023/10/02 02:16:22;;;;;;;12.60;6.07;;;11.40;40.60;;;;;;5074445;28;20461;-69
2023/10/02 02:18:50;;;;;;;9.50;6.10;;;11.40;40.60;;;;;;5074654;28;20411;-69
2023/10/02 02:21:18;;;;;;;11.60;6.40;;;11.40;40.80;;;;;;5074472;28;20408;-69
2023/10/02 02:23:45;;;;;;;12.00;6.50;;;11.40;41.00;;;;;;5074370;28;20531;-68
2023/10/02 02:26:21;;;;;;;11.90;7.10;;;11.40;41.60;;;;;;5074313;28;20788;-68
2023/10/02 02:28:51;;;;;;;11.20;6.40;;;11.30;41.70;;;;;;5074356;28;20494;-68
2023/10/02 02:31:30;;;;;;;13.17;6.20;;;11.30;41.20;;;;;;5073072;28;20796;-71
2023/10/02 02:33:57;;;;;;;10.17;6.27;;;11.20;41.90;;;;;;5072735;28;20413;-69
2023/10/02 02:36:25;;;;;;;13.00;6.73;;;11.20;42.40;;;;;;5073057;28;20447;-72
2023/10/02 02:39:05;;;;;;;10.30;6.00;;;11.20;43.40;;;;;;5074185;28;20435;-70
2023/10/02 02:41:30;;;;;;;10.50;6.73;;;11.20;44.10;;;;;;5072806;28;20420;-69
2023/10/02 02:43:56;;;;;;;12.63;6.70;;;11.30;43.90;;;;;;5074012;28;20496;-69
2023/10/02 02:46:22;;;;;;;13.27;7.30;;;11.30;42.90;;;;;;5074226;28;20192;-69
2023/10/02 02:48:49;;;;;;;11.37;6.23;;;11.20;42.40;;;;;;5073977;28;20244;-69
2023/10/02 02:51:15;;;;;;;12.40;7.10;;;11.20;44.80;;;;;;5074079;28;20253;-72
2023/10/02 02:53:40;;;;;;;13.03;7.67;;;11.10;46.30;;;;;;5073798;28;20540;-70
2023/10/02 02:56:23;;;;;;;12.10;6.60;;;11.10;46.70;;;;;;5073626;28;20174;-69
2023/10/02 02:58:50;;;;;;;11.93;7.60;;;11.10;46.30;;;;;;5074017;28;20174;-69
2023/10/02 03:01:23;;;;;;;13.17;6.47;;;11.10;48.30;;;;;;5073817;28;20411;-69
2023/10/02 03:03:55;;;;;;;8.53;6.50;;;11.20;47.10;;;;;;5073663;28;20507;-69
2023/10/02 03:06:24;;;;;;;11.17;7.33;;;11.20;47.40;;;;;;5073800;28;20778;-69
2023/10/02 03:08:51;;;;;;;11.63;6.27;;;11.10;46.60;;;;;;5072330;28;20544;-69
2023/10/02 03:11:28;;;;;;;11.13;6.73;;;11.00;48.10;;;;;;5072259;28;20416;-68
2023/10/02 03:14:12;;;;;;;8.93;6.50;;;11.00;48.70;;;;;;5072252;28;20486;-70
2023/10/02 03:16:38;;;;;;;11.90;7.07;;;10.90;49.20;;;;;;5072810;28;20503;-69
2023/10/02 03:19:07;;;;;;;10.13;6.27;;;10.90;49.10;;;;;;5072400;28;20420;-69
2023/10/02 03:21:37;;;;;;;9.50;5.73;;;10.90;50.10;;;;;;5072454;28;20406;-69
2023/10/02 03:24:04;;;;;;;12.03;7.10;;;10.90;50.90;;;;;;5072255;28;20413;-69
2023/10/02 03:29:03;;;;;;;14.87;7.53;;;10.80;52.00;;;;;;5072425;28;20458;-69
2023/10/02 03:31:46;;;;;;;13.27;6.90;;;10.90;54.70;;;;;;5072209;28;20852;-69
2023/10/02 03:37:22;;;;;;;11.17;6.70;;;10.80;55.70;;;;;;5072196;28;20447;-69
2023/10/02 03:40:00;;;;;;;11.10;6.90;;;10.80;57.50;;;;;;5072064;28;20414;-68
2023/10/02 03:42:31;;;;;;;11.43;8.37;;;10.80;56.80;;;;;;5072164;28;20459;-69
2023/10/02 03:44:58;;;;;;;10.80;6.77;;;10.70;57.20;;;;;;5071468;28;20424;-69
2023/10/02 03:47:31;;;;;;;12.47;7.60;;;10.70;57.50;;;;;;5072265;28;20445;-68
2023/10/02 03:50:03;;;;;;;14.10;9.10;;;10.80;59.50;;;;;;5071892;28;20456;-69
2023/10/02 03:52:30;;;;;;;13.50;7.53;;;10.80;59.20;;;;;;5072379;28;20435;-69
2023/10/02 03:54:56;;;;;;;12.63;6.90;;;10.70;58.70;;;;;;5071860;28;20406;-68
2023/10/02 03:57:47;;;;;;;17.10;6.83;;;10.70;58.90;;;;;;5071996;28;20408;-69
2023/10/02 04:00:26;;;;;;;13.40;8.60;;;10.70;60.30;;;;;;5071882;28;20820;-69
2023/10/02 04:02:53;;;;;;;15.30;7.87;;;10.70;60.20;;;;;;5070496;28;20479;-69
2023/10/02 04:08:13;;;;;;;12.93;6.80;;;10.70;59.70;;;;;;5071742;28;20509;-69
2023/10/02 04:10:57;;;;;;;12.33;7.03;;;10.70;58.40;;;;;;5071731;28;20423;-69
2023/10/02 04:13:24;;;;;;;11.83;6.80;;;10.70;58.60;;;;;;5025081;28;1346380;-69
2023/10/02 04:15:53;;;;;;;10.53;6.00;;;10.70;58.80;;;;;;5072294;28;20257;-69
2023/10/02 04:18:45;;;;;;;14.33;8.90;;;10.70;58.60;;;;;;5072406;28;20416;-69
2023/10/02 04:21:12;;;;;;;11.23;7.83;;;10.70;57.20;;;;;;5072263;28;20439;-69
2023/10/02 04:23:40;;;;;;;10.33;7.20;;;10.60;57.50;;;;;;5072343;28;20877;-69
2023/10/02 04:26:19;;;;;;;13.50;8.30;;;10.60;58.90;;;;;;5070842;28;20481;-69
2023/10/02 04:28:49;;;;;;;11.67;8.13;;;10.60;57.50;;;;;;5072238;28;20455;-69
2023/10/02 04:31:20;;;;;;;12.47;7.33;;;10.60;58.40;;;;;;5072241;28;20490;-69
2023/10/02 04:33:52;;;;;;;13.00;7.70;;;10.60;58.90;;;;;;5072150;28;20443;-69
2023/10/02 04:36:34;;;;;;;11.57;7.20;;;10.50;59.80;;;;;;5072192;28;20404;-69
2023/10/02 04:39:04;;;;;;;13.97;8.50;;;10.50;60.20;;;;;;5072245;28;20411;-69
2023/10/02 04:41:37;;;;;;;13.10;8.37;;;10.60;61.70;;;;;;5072038;28;20408;-68
2023/10/02 04:44:04;;;;;;;16.00;9.47;;;10.60;61.70;;;;;;5071858;28;20416;-69
2023/10/02 04:46:32;;;;;;;18.83;9.17;;;10.60;62.30;;;;;;5071996;28;20942;-69
2023/10/02 04:48:59;;;;;;;13.40;6.33;;;10.60;62.70;;;;;;5071911;28;20463;-69
2023/10/02 04:51:29;;;;;;;16.40;10.43;;;10.60;61.70;;;;;;5070505;28;20418;-69
2023/10/02 04:53:57;;;;;;;14.37;8.30;;;10.60;61.70;;;;;;5071841;28;20967;-69
2023/10/02 04:56:24;;;;;;;12.07;8.17;;;10.50;62.00;;;;;;5071036;28;20416;-69
2023/10/02 04:58:57;;;;;;;10.83;7.23;;;10.50;62.20;;;;;;5071760;28;20941;-69
2023/10/02 05:01:29;;;;;;;13.40;7.80;;;10.50;62.70;;;;;;5071824;28;20440;-69
2023/10/02 05:04:07;;;;;;;10.43;6.70;;;10.50;64.30;;;;;;5071627;28;20416;-69
2023/10/02 05:06:43;;;;;;;15.67;8.63;;;10.50;62.80;;;;;;5070458;28;20513;-69
2023/10/02 05:11:57;;;;;;;17.03;8.87;;;10.40;64.30;;;;;;5071722;28;20419;-69
2023/10/02 05:14:27;;;;;;;18.80;7.93;;;10.40;65.00;;;;;;5071479;28;20498;-69
2023/10/02 05:19:56;;;;;;;13.57;7.13;;;10.40;65.40;;;;;;5071419;28;20418;-68
2023/10/02 05:22:27;;;;;;;13.60;6.93;;;10.40;65.00;;;;;;5071455;28;20439;-71
2023/10/02 05:24:59;;;;;;;15.30;8.07;;;10.40;64.20;;;;;;5071711;28;20552;-69
2023/10/02 05:27:30;;;;;;;11.87;7.83;;;10.40;64.10;;;;;;5070228;28;20457;-68
2023/10/02 05:30:13;;;;;;;13.87;9.07;;;10.40;64.00;;;;;;5071379;28;20460;-69
2023/10/02 05:32:40;;;;;;;10.70;7.40;;;10.40;64.80;;;;;;5071508;28;20798;-69
2023/10/02 05:37:51;;;;;;;13.50;8.67;;;10.40;64.00;;;;;;5071785;28;20447;-69
2023/10/02 05:50:56;;;;;;;12.13;6.83;;;10.40;65.90;;;;;;5071376;28;20426;-69
2023/10/02 05:53:26;;;;;;;13.40;7.33;;;10.50;65.60;;;;;;5071390;28;20493;-68
2023/10/02 05:58:39;;;;;;;11.60;8.20;;;10.50;66.10;;;;;;5071472;28;20833;-68
2023/10/02 06:01:18;;;;;;;16.53;8.70;;;10.50;66.60;;;;;;5071308;28;20418;-69
2023/10/02 06:03:49;;;;;;;15.83;8.83;;;10.60;66.70;;;;;;5071154;28;20442;-69
2023/10/02 06:06:15;;;;;;;13.77;8.33;;;10.60;65.40;;;;;;5071442;28;20469;-69
2023/10/02 06:08:51;;;;;;;13.10;8.70;;;10.60;66.80;;;;;;5074699;28;20486;-69
2023/10/02 06:11:28;;;;;;;21.17;9.60;;;10.70;65.60;;;;;;5075010;28;20471;-69
2023/10/02 06:14:11;;;;;;;14.53;9.57;;;10.80;64.80;;;;;;5074527;28;20522;-69
2023/10/02 06:16:45;;;;;;;12.67;8.20;;;10.90;64.30;;;;;;5074917;28;20455;-69
2023/10/02 06:19:15;;;;;;;14.00;8.17;;;11.00;65.00;;;;;;5074707;28;20488;-69
2023/10/02 06:22:00;;;;;;;12.27;7.37;;;11.10;64.30;;;;;;5074633;28;20416;-69
2023/10/02 06:24:29;;;;;;;15.07;9.87;;;11.20;64.40;;;;;;5073065;28;20464;-69
2023/10/02 06:26:58;;;;;;;13.60;8.37;;;11.30;63.60;;;;;;5074637;28;20415;-69
2023/10/02 06:29:25;;;;;;;32.33;8.00;;;11.50;62.50;;;;;;5074547;28;20524;-68
2023/10/02 06:31:58;;;;;;;21.47;10.03;;;11.70;59.40;;;;;;5074555;28;20434;-69
2023/10/02 06:34:25;;;;;;;14.03;10.60;;;11.80;59.10;;;;;;5074251;28;20419;-69
2023/10/02 06:37:02;;;;;;;13.70;7.53;;;11.90;57.00;;;;;;5073342;28;20759;-69
2023/10/02 06:39:29;;;;;;;16.30;8.93;;;12.10;57.60;;;;;;5074552;28;20419;-69
2023/10/02 06:42:03;;;;;;;13.03;8.30;;;12.20;55.80;;;;;;5074387;28;20530;-69
2023/10/02 06:44:34;;;;;;;16.97;9.43;;;12.40;53.10;;;;;;5074309;28;20426;-70
2023/10/02 06:47:00;;;;;;;16.50;10.83;;;12.40;53.50;;;;;;5074294;28;20449;-69
2023/10/02 06:49:26;;;;;;;16.80;8.20;;;12.50;52.10;;;;;;5072858;28;20568;-69
2023/10/02 06:51:51;;;;;;;13.70;7.60;;;12.60;52.30;;;;;;5074449;28;20200;-68
2023/10/02 06:54:18;;;;;;;17.57;7.40;;;12.70;50.40;;;;;;5074580;28;20708;-69
2023/10/02 06:56:45;;;;;;;13.87;8.23;;;12.80;49.10;;;;;;5073046;28;20554;-69
2023/10/02 06:59:11;;;;;;;12.40;9.07;;;12.90;48.50;;;;;;5072951;28;20517;-70
2023/10/02 07:01:36;;;;;;;17.57;8.13;;;13.00;46.80;;;;;;5074120;28;20459;-69
2023/10/02 07:04:09;;;;;;;13.27;7.40;;;13.10;48.00;;;;;;5073785;28;20517;-69
2023/10/02 07:06:41;;;;;;;16.33;10.37;;;13.20;47.50;;;;;;5074322;28;20180;-69
2023/10/02 07:09:10;;;;;;;9.60;7.60;;;13.30;47.80;;;;;;5074000;28;20461;-70
2023/10/02 07:11:36;;;;;;;13.30;8.10;;;13.50;46.00;;;;;;5072341;28;20435;-69
2023/10/02 07:14:04;;;;;;;14.43;9.17;;;13.70;43.50;;;;;;5073663;28;20472;-70
2023/10/02 07:16:38;;;;;;;14.73;8.80;;;13.80;41.50;;;;;;5073618;28;20427;-68
2023/10/02 07:19:04;;;;;;;12.93;7.43;;;14.00;41.40;;;;;;5073069;28;20899;-69
2023/10/02 07:21:30;;;;;;;14.13;9.10;;;14.20;40.50;;;;;;5074154;28;20762;-69
2023/10/02 07:24:03;;;;;;;12.60;7.03;;;14.30;36.60;;;;;;5072606;28;20515;-69
2023/10/02 07:29:13;;;;;;;12.70;8.50;;;14.60;34.90;;;;;;5073524;28;20531;-69
2023/10/02 07:31:44;;;;;;;15.30;8.07;;;14.80;31.80;;;;;;5071909;28;20428;-69
2023/10/02 07:34:10;;;;;;;13.43;8.67;;;14.90;30.90;;;;;;5073067;28;20711;-70
2023/10/02 07:36:44;;;;;;;14.60;9.67;;;15.10;30.20;;;;;;5073122;28;20415;-69
2023/10/02 07:42:01;;;;;;;13.43;8.97;;;15.30;27.10;;;;;;5073353;28;20520;-69
2023/10/02 07:44:38;;;;;;;16.50;10.40;;;15.30;28.00;;;;;;5072933;28;20416;-69
2023/10/02 07:47:10;;;;;;;15.50;10.20;;;15.30;27.60;;;;;;5073275;28;20419;-69
2023/10/02 07:49:40;;;;;;;12.20;7.40;;;15.30;27.30;;;;;;5072851;28;20547;-69
2023/10/02 07:52:08;;;;;;;19.60;10.50;;;15.50;26.40;;;;;;5072831;28;20471;-69
2023/10/02 07:54:48;;;;;;;11.87;8.47;;;15.60;26.40;;;;;;5072774;28;20727;-70
2023/10/02 07:57:14;;;;;;;13.77;7.50;;;15.70;26.50;;;;;;5073333;28;20940;-71
2023/10/02 07:59:43;;;;;;;12.10;7.33;;;15.90;25.20;;;;;;5072869;28;20416;-71
2023/10/02 08:02:23;;;;;;;12.53;7.70;;;16.10;25.00;;;;;;5071294;28;20205;-71
2023/10/02 08:04:51;;;;;;;15.43;8.10;;;16.60;22.20;;;;;;5071500;28;20431;-70
2023/10/02 08:07:17;;;;;;;11.33;8.87;;;17.00;19.70;;;;;;5072807;28;20425;-70
2023/10/02 08:09:47;;;;;;;13.00;7.93;;;17.00;18.90;;;;;;5072929;28;20514;-70
2023/10/02 08:12:29;;;;;;;15.20;8.57;;;17.00;18.10;;;;;;5089004;22;20497;-69
2023/10/02 08:15:04;;;;;;;12.40;8.27;;;17.20;18.20;;;;;;5033886;28;20433;-69
2023/10/02 08:20:16;;;;;;;17.73;8.90;;;17.30;17.00;;;;;;5052504;28;20471;-70
2023/10/02 08:22:44;;;;;;;12.20;9.00;;;17.70;15.50;;;;;;5030623;28;20815;-70
2023/10/02 08:25:13;;;;;;;14.13;9.70;;;17.50;15.90;;;;;;5014054;28;20446;-70
2023/10/02 08:27:55;;;;;;;10.13;7.50;;;17.40;15.70;;;;;;5013963;28;20418;-70
2023/10/02 08:30:28;;;;;;;16.53;9.03;;;17.30;16.20;;;;;;5031812;28;20461;-70
2023/10/02 08:33:05;;;;;;;13.20;8.23;;;17.30;16.20;;;;;;5031723;28;20441;-70
2023/10/02 08:35:32;;;;;;;15.93;10.03;;;17.20;16.80;;;;;;5031478;28;20437;-70
2023/10/02 08:37:59;;;;;;;13.83;8.30;;;17.10;17.30;;;;;;5032161;28;20475;-69
2023/10/02 08:40:25;;;;;;;16.33;10.10;;;17.20;17.00;;;;;;5031742;28;20764;-69
2023/10/02 08:42:52;;;;;;;13.40;9.30;;;17.20;16.80;;;;;;5032241;28;20534;-70
2023/10/02 08:45:20;;;;;;;11.90;7.67;;;17.30;16.50;;;;;;5031970;28;20418;-71
2023/10/02 08:47:47;;;;;;;15.43;9.17;;;17.40;16.80;;;;;;5031778;28;20422;-69
2023/10/02 08:50:15;;;;;;;18.33;8.80;;;17.40;16.40;;;;;;5031544;28;20987;-69
2023/10/02 08:52:53;;;;;;;13.13;7.57;;;17.40;16.40;;;;;;5031510;28;20438;-69
2023/10/02 08:55:34;;;;;;;19.40;9.67;;;17.50;16.20;;;;;;5031554;28;20417;-69
2023/10/02 08:58:15;;;;;;;14.57;9.33;;;17.60;16.70;;;;;;5031709;28;20472;-70
2023/10/02 09:01:33;;;;;;;13.93;9.13;;;17.70;16.80;;;;;;5031519;28;20571;-69
2023/10/02 09:03:48;;;;;;;14.03;9.00;;;17.90;17.60;;;;;;5006584;28;20542;-69
2023/10/02 09:06:25;;;;;;;11.67;8.57;;;18.00;16.60;;;;;;5031495;28;20416;-69
2023/10/02 09:11:36;;;;;;;13.97;8.10;;;18.20;15.60;;;;;;5031534;28;20418;-70
2023/10/02 09:14:16;;;;;;;14.50;8.50;;;18.30;15.40;;;;;;5031060;28;20442;-70
2023/10/02 09:16:45;;;;;;;15.53;7.83;;;18.40;15.30;;;;;;5031484;28;20175;-70
2023/10/02 09:19:30;;;;;;;15.30;8.20;;;18.60;15.60;;;;;;5031330;28;20420;-70
2023/10/02 09:22:06;;;;;;;15.57;9.87;;;18.70;15.00;;;;;;5013694;28;20500;-69
2023/10/02 09:24:36;;;;;;;11.80;8.60;;;18.90;13.80;;;;;;5013231;28;20438;-70
2023/10/02 09:29:47;;;;;;;15.40;8.90;;;19.30;12.90;;;;;;5031264;28;20871;-69
2023/10/02 09:32:24;;;;;;;13.00;8.13;;;19.50;12.10;;;;;;5031243;28;20434;-69
2023/10/02 09:35:10;;;;;;;11.27;8.43;;;19.60;12.10;;;;;;5030971;28;20418;-69
2023/10/02 09:37:38;;;;;;;16.07;8.93;;;19.90;11.10;;;;;;5031260;28;20410;-70
2023/10/02 09:40:13;;;;;;;13.73;9.33;;;20.10;10.10;;;;;;5013549;28;20414;-70
2023/10/02 09:42:45;;;;;;;35.50;13.63;;;20.20;10.20;;;;;;5033156;28;20425;-70
2023/10/02 09:45:15;;;;;;;18.30;8.57;;;20.30;9.10;;;;;;5035067;28;20418;-70
2023/10/02 09:47:44;;;;;;;21.00;10.03;;;20.40;9.40;;;;;;5035214;28;20416;-70
2023/10/02 09:50:26;;;;;;;38.90;12.63;;;20.60;8.00;;;;;;5034965;28;20479;-70
2023/10/02 09:52:59;;;;;;;18.67;10.20;;;20.70;8.00;;;;;;5035013;28;20441;-69
2023/10/02 09:56:02;;;;;;;14.87;9.80;;;20.80;7.90;;;;;;5035031;28;20450;-70
2023/10/02 09:58:49;;;;;;;16.00;10.27;;;20.90;7.20;;;;;;5035094;28;20500;-70
2023/10/02 10:03:50;;;;;;;16.47;9.20;;;21.30;5.60;;;;;;5035079;28;20445;-70
2023/10/02 10:06:27;;;;;;;15.40;10.10;;;21.40;3.90;;;;;;5035000;28;20414;-69
2023/10/02 10:14:42;;;;;;;14.33;10.70;;;22.00;2.40;;;;;;5034582;28;20417;-69
2023/10/02 10:17:17;;;;;;;17.27;10.20;;;22.10;2.20;;;;;;5034602;28;20463;-69
2023/10/02 10:19:53;;;;;;;15.17;10.00;;;22.30;1.00;;;;;;5034524;28;20413;-70
2023/10/02 10:22:39;;;;;;;17.40;10.43;;;22.40;1.00;;;;;;5034719;28;20438;-70
2023/10/02 10:25:32;;;;;;;22.07;11.00;;;22.70;1.00;;;;;;5016753;28;20773;-70
2023/10/02 10:27:59;;;;;;;16.93;9.63;;;23.00;1.00;;;;;;5034416;28;20477;-70
2023/10/02 10:30:25;;;;;;;22.27;11.63;;;23.10;1.00;;;;;;5034443;28;20816;-70
2023/10/02 10:35:41;;;;;;;15.30;11.77;;;23.40;1.00;;;;;;5034334;28;20195;-70
2023/10/02 10:38:25;;;;;;;17.20;11.50;;;23.50;1.00;;;;;;5016634;28;20418;-70
2023/10/02 10:41:01;;;;;;;19.00;13.70;;;23.70;1.00;;;;;;5034454;28;20406;-70
2023/10/02 10:46:27;;;;;;;21.63;13.73;;;24.10;1.00;;;;;;5035584;28;20959;-70
2023/10/02 10:49:15;;;;;;;13.30;10.33;;;24.30;1.00;;;;;;5034446;28;20975;-70
2023/10/02 10:51:41;;;;;;;16.80;11.17;;;24.40;1.00;;;;;;5018793;28;20795;-70
2023/10/02 10:54:12;;;;;;;15.60;11.10;;;24.50;1.00;;;;;;5032782;28;20633;-69
2023/10/02 10:56:45;;;;;;;18.80;14.10;;;24.60;1.00;;;;;;5034184;28;20414;-70
2023/10/02 10:59:12;;;;;;;14.57;11.37;;;24.80;1.00;;;;;;5033960;28;20827;-70
2023/10/02 11:01:49;;;;;;;19.90;14.00;;;24.90;1.00;;;;;;5034175;28;20448;-70
2023/10/02 11:04:26;;;;;;;22.23;12.00;;;25.10;1.00;;;;;;5033821;28;20413;-69
2023/10/02 11:06:52;;;;;;;14.07;11.67;;;25.20;1.00;;;;;;5033882;28;20445;-70
2023/10/02 11:09:18;;;;;;;15.87;11.07;;;25.30;1.00;;;;;;5033901;28;20488;-70
2023/10/02 11:11:49;;;;;;;16.80;11.03;;;25.40;1.00;;;;;;5016158;28;20176;-69
2023/10/02 11:14:22;;;;;;;19.43;12.57;;;25.50;1.00;;;;;;5033622;28;20186;-70
2023/10/02 11:16:52;;;;;;;16.70;11.57;;;25.50;1.00;;;;;;5033687;28;20433;-70
2023/10/02 11:19:26;;;;;;;22.63;13.57;;;25.60;1.00;;;;;;5034079;28;20633;-70
2023/10/02 11:22:14;;;;;;;22.70;13.37;;;25.70;1.00;;;;;;5033799;28;20438;-70
2023/10/02 11:24:45;;;;;;;17.27;13.63;;;25.80;1.00;;;;;;5033377;28;20449;-70
2023/10/02 11:27:18;;;;;;;16.70;12.90;;;26.00;1.00;;;;;;5033421;28;20408;-70
2023/10/02 11:30:01;;;;;;;16.33;12.10;;;26.20;1.00;;;;;;5033188;28;20460;-70
2023/10/02 11:33:00;;;;;;;14.27;11.60;;;26.30;1.00;;;;;;5033125;28;20441;-70
2023/10/02 11:35:28;;;;;;;15.57;14.07;;;26.60;1.00;;;;;;5025259;28;20472;-70
2023/10/02 11:37:54;;;;;;;19.40;14.30;;;26.70;1.00;;;;;;5033288;28;20839;-70
2023/10/02 11:40:24;;;;;;;16.50;12.70;;;26.80;1.00;;;;;;5033156;28;20497;-70
2023/10/02 11:42:50;;;;;;;18.70;13.27;;;27.00;1.00;;;;;;5032764;28;20483;-70
2023/10/02 11:45:16;;;;;;;20.60;14.83;;;26.90;1.00;;;;;;5032776;28;20426;-70
2023/10/02 11:47:42;;;;;;;26.23;13.77;;;27.00;1.00;;;;;;5033019;28;21004;-70
2023/10/02 11:50:07;;;;;;;26.10;17.50;;;27.10;1.00;;;;;;5032888;28;20261;-70
2023/10/02 11:52:33;;;;;;;22.07;13.27;;;27.20;1.00;;;;;;5033008;28;20222;-70
2023/10/02 11:54:59;;;;;;;20.57;12.80;;;27.40;1.00;;;;;;5032717;28;20421;-70
2023/10/02 11:57:24;;;;;;;18.90;13.17;;;27.50;1.00;;;;;;5032777;28;20175;-70
2023/10/02 11:59:51;;;;;;;19.80;13.13;;;27.60;1.00;;;;;;5032704;28;20198;-70
2023/10/02 12:02:17;;;;;;;22.60;14.60;;;27.60;1.00;;;;;;5014938;28;20265;-70
2023/10/02 12:04:44;;;;;;;25.70;17.60;;;27.70;1.00;;;;;;5032962;28;20433;-70
2023/10/02 12:07:16;;;;;;;25.37;16.10;;;27.90;1.00;;;;;;5032928;28;20509;-71
2023/10/02 12:09:47;;;;;;;25.43;17.80;;;27.90;1.00;;;;;;5032938;28;20976;-70
2023/10/02 12:12:13;;;;;;;23.10;16.00;;;28.00;1.00;;;;;;5032463;28;20449;-70
2023/10/02 12:14:42;;;;;;;15.07;13.47;;;28.20;1.00;;;;;;5032331;28;20414;-70
2023/10/02 12:17:11;;;;;;;21.87;16.27;;;28.40;1.00;;;;;;5032539;28;20471;-70
2023/10/02 12:19:40;;;;;;;24.10;14.57;;;28.40;1.00;;;;;;5032453;28;20418;-70
2023/10/02 12:22:06;;;;;;;24.47;17.67;;;28.50;1.00;;;;;;5032435;28;20422;-70
2023/10/02 12:24:32;;;;;;;29.53;18.33;;;28.60;1.00;;;;;;5032066;28;20501;-70
2023/10/02 12:26:58;;;;;;;27.10;18.97;;;28.40;1.00;;;;;;5032258;28;21035;-70
2023/10/02 12:29:26;;;;;;;28.20;22.00;;;28.60;1.00;;;;;;5032423;28;20556;-70
2023/10/02 12:31:52;;;;;;;40.13;20.90;;;28.60;1.00;;;;;;5032316;28;20175;-70
2023/10/02 12:34:18;;;;;;;38.20;24.47;;;28.70;1.00;;;;;;5032319;28;20406;-70
2023/10/02 12:36:44;;;;;;;32.63;24.20;;;28.70;1.00;;;;;;5032370;28;20767;-70
2023/10/02 12:39:13;;;;;;;35.77;21.00;;;28.70;1.00;;;;;;5032276;28;20186;-70
2023/10/02 12:41:43;;;;;;;32.73;24.60;;;28.80;1.00;;;;;;5032012;28;20179;-70
2023/10/02 12:44:08;;;;;;;31.70;23.17;;;28.80;1.00;;;;;;5031808;28;20476;-70
2023/10/02 12:46:43;;;;;;;28.07;22.07;;;28.70;1.00;;;;;;5032005;28;20454;-70
2023/10/02 12:49:13;;;;;;;35.17;24.23;;;28.80;1.00;;;;;;5031976;28;20843;-70
2023/10/02 12:51:40;;;;;;;30.97;21.23;;;29.00;1.00;;;;;;5031918;28;20437;-70
2023/10/02 12:54:07;;;;;;;29.97;23.60;;;29.00;1.00;;;;;;5031944;28;20906;-70
2023/10/02 12:56:33;;;;;;;37.47;27.87;;;29.00;1.00;;;;;;5031984;28;20414;-70
2023/10/02 12:58:59;;;;;;;47.90;27.77;;;29.00;1.00;;;;;;5032064;28;20516;-70
2023/10/02 13:01:29;;;;;;;32.70;23.53;;;28.90;1.00;;;;;;5031795;28;20880;-70
2023/10/02 13:03:56;;;;;;;38.53;25.20;;;29.00;1.00;;;;;;5031569;28;20199;-70
2023/10/02 13:06:24;;;;;;;35.87;25.90;;;28.90;1.00;;;;;;5031639;28;20497;-70
2023/10/02 13:08:49;;;;;;;33.27;25.40;;;28.90;1.00;;;;;;5031746;28;20523;-70
2023/10/02 13:11:19;;;;;;;33.20;23.93;;;29.20;1.00;;;;;;5031656;28;20913;-71
2023/10/02 13:13:46;;;;;;;31.73;25.13;;;29.20;1.00;;;;;;5031630;28;20238;-70
2023/10/02 13:16:18;;;;;;;37.03;24.80;;;29.10;1.00;;;;;;5031104;28;20421;-70
2023/10/02 13:18:45;;;;;;;36.33;25.47;;;29.20;1.00;;;;;;5031593;28;20456;-70
2023/10/02 13:21:14;;;;;;;36.53;22.03;;;29.30;1.00;;;;;;5031627;28;20829;-70
2023/10/02 13:23:40;;;;;;;26.20;19.80;;;29.20;1.00;;;;;;5031590;28;20440;-71
2023/10/02 13:26:10;;;;;;;29.50;22.27;;;29.20;1.00;;;;;;5031606;28;20463;-70
2023/10/02 13:28:37;;;;;;;30.17;22.17;;;29.40;1.00;;;;;;5031488;28;20461;-70
2023/10/02 13:31:13;;;;;;;29.13;19.80;;;29.40;1.00;;;;;;5031576;28;20410;-70
2023/10/02 13:33:55;;;;;;;42.93;22.50;;;29.40;1.00;;;;;;5031366;28;20481;-70
2023/10/02 13:36:24;;;;;;;38.57;21.87;;;29.50;1.00;;;;;;5013780;28;20440;-70
2023/10/02 13:38:57;;;;;;;31.03;20.87;;;29.50;1.00;;;;;;5013794;28;20426;-70
2023/10/02 13:41:24;;;;;;;31.97;24.17;;;29.50;1.00;;;;;;5031461;28;20927;-70
2023/10/02 13:43:53;;;;;;;28.50;22.63;;;29.40;1.00;;;;;;5031327;28;20429;-71
2023/10/02 13:46:20;;;;;;;35.93;24.80;;;29.40;1.00;;;;;;5031682;28;20414;-70
2023/10/02 13:48:47;;;;;;;36.40;26.40;;;29.50;1.00;;;;;;5031656;28;20776;-70
2023/10/02 13:51:16;;;;;;;37.37;22.40;;;29.40;1.00;;;;;;5031544;28;20410;-71
2023/10/02 13:53:42;;;;;;;38.13;22.70;;;29.40;1.00;;;;;;5031568;28;20944;-71
2023/10/02 13:56:25;;;;;;;33.27;22.13;;;29.60;1.00;;;;;;5031242;28;20428;-70
2023/10/02 13:58:52;;;;;;;26.40;21.30;;;29.50;1.00;;;;;;5031349;28;20962;-70
2023/10/02 14:01:19;;;;;;;35.70;23.80;;;29.50;1.00;;;;;;5031518;28;20936;-70
2023/10/02 14:03:46;;;;;;;38.60;24.23;;;29.60;1.00;;;;;;5031180;28;20970;-70